Avilla, MO

9:12 AM CST on January 25, 2015 (GMT -0600)
APRSWXNET Lockwood MO US | Change Station
CLOSE
Current Station
Personal Weather Station
Location: Lockwood, MO
Elevation: 1069 ft
Nearby Weather Stations

Elev 1069 ft 37.39 °N, 93.95 °W | Updated 39 minutes ago

Overcast
Overcast
45 °F
Feels Like 40 °F
N
9
Wind Variable Wind from WNW
Gusts 18.0 mph

Today
High -- | Low -- °F
--% Chance of Precip.
Yesterday
High -- | Low -- °F
Precip. -- in
7:24 AM 5:33 PM
Waxing Crescent, 33% visible
Pressure 29.75 in
Visibility 10.0 miles
Clouds Mostly Cloudy 3000 ft
Overcast 3800 ft
Windchill 40 °F
Dew Point 37 °F
Humidity 73%
Rainfall 0.00 in
Snow Depth Not available.
UV 0 out of 12
Pollen 2.20 out of 12
Air Quality Not available.
Flu Activity Not available.
METAR KJLN 251453Z 31018G28KT 10SM BKN030 OVC038 08/02 A2975 RMK AO2 PK WND 30029/1421 SLP073 T00780017 51009

More Conditions Fewer Conditions

Pressure 29.75 in
Visibility 10.0 miles
Clouds Mostly Cloudy 3000 ft
Overcast 3800 ft
Windchill 40 °F
Dew Point 37 °F
Humidity 73%
Rainfall 0.00 in
Snow Depth Not available.
UV 0 out of 12
Pollen 2.20 out of 12
Air Quality Not available.
Flu Activity Not available.
METAR KJLN 251453Z 31018G28KT 10SM BKN030 OVC038 08/02 A2975 RMK AO2 PK WND 30029/1421 SLP073 T00780017 51009

More Conditions Fewer Conditions

10-Day Weather Forecast

Almanac

Astronomy

Jan. 25, 2015 Rise Set
Actual Time
Civil Twilight
Nautical Twilight
Astronomical Twilight
Moon
Length of Visible Light
Length of Day
Tomorrow will be .
, % of the Moon is Illuminated

Today's Extremes

State Highs State Lows

Community

WunderPhotos

Upload Photos

1,789,909 photos uploaded!

WunderBlogs® & News

Nearby

Air Quality

  Air Quality AQ Index Pollutant
Not available.

Snow Depth

Station Depth Elevation

Earthquake Activity

City Distance Mag. Time & Date
Minimum magnitude displayed is 2.5.

Coastal Water Temperatures

Place Temperature

Nearby Weather Stations